Time;durP1;ratioP1;P1;durP2;ratioP2;P2;SDS_P1;SDS_P2;PMS_P1;PMS_P2;Temp;Humidity;BMP_temperature;BMP_pressure;BME280_temperature;BME280_humidity;BME280_pressure;Samples;Min_cycle;Max_cycle;Signal;HPM_P1;HPM_P2
2023/11/26 00:00:16;;;;;;;;;;;5.60;69.60;;;0.75;100.00;95272.69;4966551;28;20360;-49
2023/11/26 00:02:42;;;;;;;;;;;5.60;69.70;;;0.77;100.00;95286.41;4965048;28;20048;-52
2023/11/26 00:05:08;;;;;;;;;;;5.70;69.80;;;0.79;100.00;95281.78;4965385;28;19909;-53
2023/11/26 00:07:34;;;;;;;;;;;5.70;69.80;;;0.79;100.00;95285.19;4965768;28;19929;-50
2023/11/26 00:10:00;;;;;;;;;;;5.70;69.70;;;0.79;100.00;95279.94;4955550;28;19910;-49
2023/11/26 00:12:26;;;;;;;;;;;5.70;69.80;;;0.78;100.00;95282.75;4970412;28;19918;-53
2023/11/26 00:14:53;;;;;;;;;;;5.70;69.80;;;0.79;100.00;95284.38;4978808;28;19920;-50
2023/11/26 00:17:22;;;;;;;;;;;5.70;69.80;;;0.80;100.00;95288.59;4977205;28;19928;-54
2023/11/26 00:19:49;;;;;;;;;;;5.70;69.80;;;0.85;100.00;95301.91;4972746;28;19909;-50
2023/11/26 00:22:15;;;;;;;;;;;5.70;69.80;;;0.79;100.00;95287.00;4956772;28;20275;-54
2023/11/26 00:24:41;;;;;;;;;;;5.80;69.90;;;0.84;100.00;95303.69;4962403;28;19992;-53
2023/11/26 00:27:07;;;;;;;;;;;5.70;69.80;;;0.82;100.00;95300.50;4956984;28;19925;-51
2023/11/26 00:29:40;;;;;;;;;;;5.70;69.80;;;0.83;100.00;95303.94;4962155;28;20265;-50
2023/11/26 00:32:07;;;;;;;;;;;5.80;69.80;;;0.84;100.00;95308.94;4962236;28;20426;-51
2023/11/26 00:34:35;;;;;;;;;;;5.70;69.80;;;0.85;100.00;95300.09;4954108;28;19913;-53
2023/11/26 00:37:00;;;;;;;;;;;5.70;69.80;;;0.81;100.00;95298.06;4972892;28;19992;-51
2023/11/26 00:39:27;;;;;;;;;;;5.70;69.80;;;0.80;100.00;95301.72;4964938;28;19996;-51
2023/11/26 00:41:52;;;;;;;;;;;5.70;69.90;;;0.73;100.00;95300.97;4972604;28;19916;-50
2023/11/26 00:44:19;;;;;;;;;;;5.70;69.90;;;0.74;100.00;95305.97;4962248;28;19909;-51
2023/11/26 00:46:45;;;;;;;;;;;5.70;69.90;;;0.77;100.00;95307.38;4964505;28;19910;-52
2023/11/26 00:49:12;;;;;;;;;;;5.70;69.90;;;0.76;100.00;95311.03;4967239;28;19913;-52
2023/11/26 00:51:38;;;;;;;;;;;5.70;69.90;;;0.77;100.00;95308.19;4966538;28;19922;-53
2023/11/26 00:54:05;;;;;;;;;;;5.70;69.90;;;0.75;100.00;95315.44;4966987;28;19909;-51
2023/11/26 00:56:35;;;;;;;;;;;5.70;69.90;;;0.76;100.00;95316.28;4956280;28;20009;-52
2023/11/26 00:59:00;;;;;;;;;;;5.70;69.90;;;0.76;100.00;95317.06;4968566;28;19917;-52
2023/11/26 01:01:26;;;;;;;;;;;5.70;70.00;;;0.75;100.00;95330.38;4958747;28;20296;-53
2023/11/26 01:03:52;;;;;;;;;;;5.70;70.00;;;0.77;100.00;95325.75;4968430;28;19960;-52
2023/11/26 01:06:18;;;;;;;;;;;5.70;70.00;;;0.74;100.00;95324.34;4969768;28;19910;-55
2023/11/26 01:08:44;;;;;;;;;;;5.70;70.00;;;0.78;100.00;95327.34;4964056;28;20025;-55
2023/11/26 01:11:14;;;;;;;;;;;5.70;70.00;;;0.82;100.00;95326.72;4975518;28;19910;-52
2023/11/26 01:13:41;;;;;;;;;;;5.70;70.00;;;0.81;100.00;95329.53;4948823;28;19909;-52
2023/11/26 01:16:07;;;;;;;;;;;5.70;70.10;;;0.82;100.00;95334.59;4974202;28;20005;-52
2023/11/26 01:18:33;;;;;;;;;;;5.70;70.00;;;0.80;100.00;95325.31;4975805;28;19913;-55
2023/11/26 01:20:59;;;;;;;;;;;5.70;70.10;;;0.75;100.00;95336.41;4955287;28;19909;-50
2023/11/26 01:23:25;;;;;;;;;;;5.80;70.10;;;0.77;100.00;95333.59;4962236;28;19913;-50
2023/11/26 01:25:51;;;;;;;;;;;5.70;70.00;;;0.78;100.00;95332.59;4969491;28;20120;-56
2023/11/26 01:28:17;;;;;;;;;;;5.70;70.00;;;0.80;100.00;95338.44;4972866;28;19918;-51
2023/11/26 01:30:44;;;;;;;;;;;5.70;70.10;;;0.83;100.00;95346.69;4964183;28;19940;-54
2023/11/26 01:33:10;;;;;;;;;;;5.70;70.10;;;0.83;100.00;95348.50;4975693;28;19910;-57
2023/11/26 01:35:37;;;;;;;;;;;5.70;70.10;;;0.84;100.00;95343.03;4968938;28;19914;-55
2023/11/26 01:38:03;;;;;;;;;;;5.70;70.10;;;0.87;100.00;95349.69;4965606;28;19918;-57
2023/11/26 01:40:29;;;;;;;;;;;5.70;70.10;;;0.81;100.00;95350.53;4958178;28;19910;-53
2023/11/26 01:42:55;;;;;;;;;;;5.80;70.20;;;0.79;100.00;95345.50;4964979;28;19921;-57
2023/11/26 01:45:21;;;;;;;;;;;5.80;70.20;;;0.80;100.00;95348.91;4965726;28;19951;-54
2023/11/26 01:47:48;;;;;;;;;;;5.80;70.20;;;0.83;100.00;95346.69;4957245;28;19925;-57
2023/11/26 01:50:24;;;;;;;;;;;5.80;70.20;;;0.81;100.00;95350.53;4971516;28;19910;-56
2023/11/26 01:52:52;;;;;;;;;;;5.70;70.20;;;0.81;100.00;95353.16;4963393;28;19910;-53
2023/11/26 01:55:21;;;;;;;;;;;5.70;70.20;;;0.80;100.00;95351.53;4952582;28;20380;-56
2023/11/26 01:57:47;;;;;;;;;;;5.70;70.20;;;0.78;100.00;95346.50;4973230;28;19925;-57
2023/11/26 02:00:16;;;;;;;;;;;5.70;70.20;;;0.79;100.00;95347.31;4939399;28;19965;-57
2023/11/26 02:02:43;;;;;;;;;;;5.70;70.20;;;0.81;100.00;95353.16;4961298;28;19941;-58
2023/11/26 02:05:12;;;;;;;;;;;5.70;70.20;;;0.87;100.00;95349.69;4974362;28;19910;-55
2023/11/26 02:07:42;;;;;;;;;;;5.70;70.20;;;0.88;100.00;95359.19;4961958;28;19910;-51
2023/11/26 02:10:09;;;;;;;;;;;5.80;70.30;;;0.88;100.00;95361.81;4975583;28;19909;-54
2023/11/26 02:12:35;;;;;;;;;;;5.80;70.30;;;0.83;100.00;95361.63;4964029;28;20013;-53
2023/11/26 02:15:03;;;;;;;;;;;5.70;70.20;;;0.88;100.00;95356.56;4962665;28;20692;-55
2023/11/26 02:17:30;;;;;;;;;;;5.80;71.00;;;0.88;100.00;95351.31;4954511;28;19910;-56
2023/11/26 02:20:04;;;;;;;;;;;5.80;70.20;;;0.90;100.00;95342.19;4969484;28;20456;-54
2023/11/26 02:22:30;;;;;;;;;;;5.80;70.20;;;0.88;100.00;95351.31;4962252;28;19921;-53
2023/11/26 02:24:55;;;;;;;;;;;5.80;70.20;;;0.89;100.00;95356.34;4966279;28;20373;-54
2023/11/26 02:27:21;;;;;;;;;;;5.80;70.20;;;0.86;100.00;95353.34;4975638;28;19924;-53
2023/11/26 02:29:47;;;;;;;;;;;5.80;70.20;;;0.87;100.00;95347.06;4983927;28;19910;-54
2023/11/26 02:32:13;;;;;;;;;;;5.80;70.20;;;0.90;100.00;95339.56;4981217;28;20324;-56
2023/11/26 02:34:39;;;;;;;;;;;5.80;70.20;;;0.85;100.00;95351.72;4969226;28;20324;-52
2023/11/26 02:37:04;;;;;;;;;;;5.80;70.20;;;0.82;100.00;95355.56;4980959;28;20271;-56
2023/11/26 02:39:30;;;;;;;;;;;5.80;70.20;;;0.76;100.00;95347.75;4975807;28;19992;-54
2023/11/26 02:41:58;;;;;;;;;;;5.80;70.30;;;0.83;100.00;95351.94;4976650;28;19910;-54
2023/11/26 02:44:25;;;;;;;;;;;5.80;70.20;;;0.87;100.00;95353.09;4982468;28;19910;-55
2023/11/26 02:46:51;;;;;;;;;;;5.80;70.30;;;0.81;100.00;95351.31;4988094;28;19915;-56
2023/11/26 02:49:18;;;;;;;;;;;5.80;70.30;;;0.84;100.00;95348.28;4983792;28;19918;-55
2023/11/26 02:51:45;;;;;;;;;;;5.80;70.30;;;0.84;100.00;95347.47;4986043;28;19948;-53
2023/11/26 02:54:11;;;;;;;;;;;5.80;70.30;;;0.85;100.00;95351.72;4980646;28;19950;-54
2023/11/26 02:56:40;;;;;;;;;;;5.80;70.40;;;0.84;100.00;95355.34;4963806;28;19996;-52
2023/11/26 02:59:06;;;;;;;;;;;5.80;70.30;;;0.78;100.00;95356.97;4963706;28;19910;-51
2023/11/26 03:01:33;;;;;;;;;;;5.80;70.30;;;0.80;100.00;95373.31;4973197;28;19953;-51
2023/11/26 03:03:58;;;;;;;;;;;5.80;70.50;;;0.82;100.00;95373.94;4971105;28;19916;-51
2023/11/26 03:06:26;;;;;;;;;;;5.80;70.30;;;0.81;100.00;95374.91;4982838;28;19909;-52
2023/11/26 03:09:00;;;;;;;;;;;5.80;70.30;;;0.85;100.00;95372.72;4972066;28;19925;-53
2023/11/26 03:14:15;;;;;;;;;;;5.80;70.30;;;0.81;100.00;95376.75;4950740;28;19944;-53
2023/11/26 03:16:45;;;;;;;;;;;5.80;70.30;;;0.85;100.00;95377.97;4975421;28;19968;-51
2023/11/26 03:19:13;;;;;;;;;;;5.80;70.30;;;0.78;100.00;95385.03;4962987;28;19971;-50
2023/11/26 03:21:44;;;;;;;;;;;5.80;70.30;;;0.79;100.00;95384.84;4966525;28;19918;-51
2023/11/26 03:24:15;;;;;;;;;;;5.80;70.30;;;0.83;100.00;95385.22;4975878;28;19909;-51
2023/11/26 03:26:40;;;;;;;;;;;5.80;70.30;;;0.78;100.00;95388.44;4972457;28;20401;-52
2023/11/26 03:29:07;;;;;;;;;;;5.80;70.40;;;0.77;100.00;95391.28;4977239;28;19956;-51
2023/11/26 03:31:34;;;;;;;;;;;5.80;70.30;;;0.81;100.00;95395.91;4979799;28;19968;-56
2023/11/26 03:33:59;;;;;;;;;;;5.80;70.30;;;0.79;100.00;95394.53;4965953;28;19916;-51
2023/11/26 03:36:25;;;;;;;;;;;5.80;70.40;;;0.81;100.00;95397.72;4976064;28;19918;-52
2023/11/26 03:38:52;;;;;;;;;;;5.80;70.30;;;0.72;100.00;95409.44;4968709;28;19909;-55
2023/11/26 03:41:18;;;;;;;;;;;5.80;70.30;;;0.81;100.00;95408.22;4980578;28;19917;-53
2023/11/26 03:43:44;;;;;;;;;;;5.80;70.30;;;0.83;100.00;95408.81;4962604;28;19956;-55
2023/11/26 03:46:10;;;;;;;;;;;5.80;70.30;;;0.82;100.00;95413.25;4972736;28;19913;-54
2023/11/26 03:48:38;;;;;;;;;;;5.80;70.40;;;0.76;100.00;95410.66;4976572;28;19913;-51
2023/11/26 03:51:05;;;;;;;;;;;5.80;70.40;;;0.80;100.00;95407.41;4972876;28;20300;-54
2023/11/26 03:53:30;;;;;;;;;;;5.80;70.30;;;0.84;100.00;95415.66;4962714;28;20008;-51
2023/11/26 03:55:56;;;;;;;;;;;5.80;70.40;;;0.81;100.00;95413.47;4971715;28;20521;-51
2023/11/26 03:58:22;;;;;;;;;;;5.80;70.40;;;0.80;100.00;95415.28;4972068;28;20008;-52
2023/11/26 04:00:56;;;;;;;;;;;5.80;70.40;;;0.75;100.00;95419.53;5080321;28;20300;-51
2023/11/26 04:03:22;;;;;;;;;;;5.80;70.30;;;0.79;100.00;95423.38;5050826;28;19938;-51
2023/11/26 04:05:48;;;;;;;;;;;5.70;70.30;;;0.80;100.00;95423.16;5044984;28;19913;-52
2023/11/26 04:08:14;;;;;;;;;;;5.70;70.30;;;0.77;100.00;95433.25;5048385;28;19913;-51
2023/11/26 04:10:39;;;;;;;;;;;5.80;70.30;;;0.67;100.00;95431.06;5035104;28;20383;-51
2023/11/26 04:13:06;;;;;;;;;;;5.70;70.30;;;0.67;100.00;95425.81;5047802;28;19948;-51
2023/11/26 04:15:32;;;;;;;;;;;5.70;70.30;;;0.63;100.00;95425.44;5031697;28;19997;-51
2023/11/26 04:17:58;;;;;;;;;;;5.70;70.30;;;0.65;100.00;95433.88;5032142;28;20331;-57
2023/11/26 04:20:26;;;;;;;;;;;5.60;70.30;;;0.67;100.00;95434.47;5027732;28;20394;-57
2023/11/26 04:22:52;;;;;;;;;;;5.60;70.30;;;0.64;100.00;95440.13;5032245;28;19916;-55
2023/11/26 04:25:18;;;;;;;;;;;5.70;70.40;;;0.67;100.00;95441.56;5036549;28;19915;-54
2023/11/26 04:27:44;;;;;;;;;;;5.60;70.40;;;0.63;100.00;95435.13;5026879;28;20363;-54
2023/11/26 04:30:11;;;;;;;;;;;5.60;70.30;;;0.67;100.00;95444.97;5037192;28;19913;-50
2023/11/26 04:32:37;;;;;;;;;;;5.60;70.40;;;0.73;100.00;95445.97;5021634;28;20307;-55
2023/11/26 04:35:03;;;;;;;;;;;5.60;70.50;;;0.74;100.00;95449.38;5034128;28;19950;-56
2023/11/26 04:37:28;;;;;;;;;;;5.60;70.50;;;0.72;100.00;95452.19;5037306;28;19915;-55
2023/11/26 04:39:54;;;;;;;;;;;5.60;70.50;;;0.69;100.00;95450.81;5027376;28;19908;-51
2023/11/26 04:42:21;;;;;;;;;;;5.70;70.50;;;0.73;100.00;95450.41;5036146;28;19915;-54
2023/11/26 04:44:46;;;;;;;;;;;5.60;70.50;;;0.75;100.00;95448.38;5029246;28;19912;-52
2023/11/26 04:47:12;;;;;;;;;;;5.70;70.60;;;0.77;100.00;95449.78;5033548;28;19977;-51
2023/11/26 04:49:38;;;;;;;;;;;5.70;70.60;;;0.81;100.00;95453.59;5032101;28;20570;-50
2023/11/26 04:52:05;;;;;;;;;;;5.70;70.60;;;0.84;100.00;95455.00;5029559;28;20001;-51
2023/11/26 04:54:31;;;;;;;;;;;5.70;70.60;;;0.85;100.00;95451.38;5030918;28;19962;-52
2023/11/26 04:56:57;;;;;;;;;;;5.80;70.60;;;0.87;100.00;95452.78;5028205;28;20412;-51
2023/11/26 04:59:23;;;;;;;;;;;5.80;70.60;;;0.90;100.00;95448.94;5031804;28;19916;-51
2023/11/26 05:01:55;;;;;;;;;;;5.80;70.60;;;0.93;100.00;95453.75;5036388;28;19959;-52
2023/11/26 05:04:21;;;;;;;;;;;5.80;70.60;;;0.92;100.00;95458.22;5029082;28;19909;-52
2023/11/26 05:06:47;;;;;;;;;;;5.80;70.60;;;0.92;100.00;95454.78;5049426;28;19912;-51
2023/11/26 05:09:13;;;;;;;;;;;5.90;70.50;;;0.91;100.00;95459.22;5024866;28;20295;-51
2023/11/26 05:11:45;;;;;;;;;;;5.90;70.40;;;0.92;100.00;95452.16;5021629;28;19913;-52
2023/11/26 05:14:12;;;;;;;;;;;5.90;70.40;;;0.91;100.00;95459.22;5018203;28;20000;-53
2023/11/26 05:16:38;;;;;;;;;;;5.90;70.40;;;0.96;100.00;95461.22;5014921;28;19913;-51
2023/11/26 05:19:05;;;;;;;;;;;5.90;70.40;;;0.96;100.00;95461.22;5048403;28;19909;-53
2023/11/26 05:21:31;;;;;;;;;;;5.90;70.40;;;0.96;100.00;95465.66;5012738;28;19916;-54
2023/11/26 05:23:56;;;;;;;;;;;5.90;70.40;;;0.97;100.00;95469.88;5018206;28;19913;-52
2023/11/26 05:26:23;;;;;;;;;;;5.90;70.40;;;0.88;100.00;95472.75;5015780;28;19909;-54
2023/11/26 05:28:50;;;;;;;;;;;5.90;70.40;;;0.88;100.00;95479.81;5015242;28;20338;-55
2023/11/26 05:31:15;;;;;;;;;;;5.90;70.40;;;0.88;100.00;95490.31;5019391;28;19919;-51
2023/11/26 05:33:41;;;;;;;;;;;5.90;70.40;;;0.88;100.00;95485.88;5013593;28;19999;-53
2023/11/26 05:36:08;;;;;;;;;;;5.90;70.40;;;0.93;100.00;95487.84;5024021;28;19965;-55
2023/11/26 05:38:34;;;;;;;;;;;5.90;70.40;;;0.93;100.00;95491.28;5012802;28;19963;-52
2023/11/26 05:41:00;;;;;;;;;;;5.90;70.40;;;0.89;100.00;95489.28;5020547;28;19909;-54
2023/11/26 05:43:27;;;;;;;;;;;5.90;70.40;;;0.93;100.00;95487.84;5015921;28;19917;-55
2023/11/26 05:45:53;;;;;;;;;;;5.90;70.40;;;0.91;100.00;95500.41;5045596;28;19909;-56
2023/11/26 05:48:18;;;;;;;;;;;5.90;70.40;;;0.91;100.00;95498.56;5017251;28;20083;-54
2023/11/26 05:50:44;;;;;;;;;;;5.90;70.40;;;0.88;100.00;95495.56;5015209;28;19917;-53
2023/11/26 05:53:11;;;;;;;;;;;5.90;70.40;;;0.93;100.00;95495.72;5021138;28;19916;-54
2023/11/26 05:55:38;;;;;;;;;;;5.90;70.40;;;0.87;100.00;95499.19;5013784;28;19934;-54
2023/11/26 05:58:04;;;;;;;;;;;5.90;71.30;;;0.88;100.00;95506.06;5019558;28;20275;-56
2023/11/26 06:00:29;;;;;;;;;;;5.90;70.50;;;0.88;100.00;95500.81;5019571;28;19916;-55
2023/11/26 06:02:56;;;;;;;;;;;5.90;70.50;;;0.89;100.00;95508.44;5019469;28;19909;-56
2023/11/26 06:05:22;;;;;;;;;;;5.80;70.50;;;0.91;100.00;95509.06;5017368;28;19909;-54
2023/11/26 06:07:48;;;;;;;;;;;5.90;70.50;;;0.90;100.00;95510.06;5016897;28;19909;-55
2023/11/26 06:10:15;;;;;;;;;;;5.80;70.50;;;0.85;100.00;95511.72;5012655;28;19920;-54
2023/11/26 06:12:41;;;;;;;;;;;5.80;70.60;;;0.85;100.00;95509.88;5018549;28;19909;-55
2023/11/26 06:15:08;;;;;;;;;;;5.80;70.60;;;0.87;100.00;95513.09;5013459;28;19916;-57
2023/11/26 06:17:34;;;;;;;;;;;5.90;70.60;;;0.88;100.00;95513.91;5016556;28;19916;-51
2023/11/26 06:20:00;;;;;;;;;;;5.80;70.60;;;0.89;100.00;95520.78;5018462;28;20015;-54
2023/11/26 06:22:28;;;;;;;;;;;5.80;70.60;;;0.87;100.00;95520.16;5012314;28;19958;-53
2023/11/26 06:24:54;;;;;;;;;;;5.80;70.60;;;0.85;100.00;95522.19;5018891;28;19913;-50
2023/11/26 06:27:20;;;;;;;;;;;5.80;70.60;;;0.86;100.00;95529.03;5014157;28;20433;-54
2023/11/26 06:29:45;;;;;;;;;;;5.80;70.60;;;0.87;100.00;95531.44;5015462;28;19917;-54
2023/11/26 06:32:11;;;;;;;;;;;5.80;70.60;;;0.90;100.00;95528.41;5015362;28;19913;-54
2023/11/26 06:34:40;;;;;;;;;;;5.80;70.60;;;0.91;100.00;95542.38;5019147;28;19959;-53
2023/11/26 06:37:06;;;;;;;;;;;5.80;70.60;;;0.93;100.00;95548.19;5018115;28;20297;-52
2023/11/26 06:39:32;;;;;;;;;;;5.90;70.70;;;0.96;100.00;95539.91;5014167;28;19920;-53
2023/11/26 06:41:58;;;;;;;;;;;5.90;70.70;;;1.02;100.00;95551.41;5019593;28;19916;-54
2023/11/26 06:44:24;;;;;;;;;;;5.90;70.70;;;1.02;100.00;95546.97;5016167;28;19909;-53
2023/11/26 06:46:53;;;;;;;;;;;5.90;70.70;;;1.00;100.00;95548.97;5016292;28;19959;-53
2023/11/26 06:49:19;;;;;;;;;;;5.90;70.70;;;0.99;100.00;95551.81;5013050;28;19917;-54
2023/11/26 06:51:45;;;;;;;;;;;6.00;70.70;;;1.03;100.00;95555.63;5012732;28;20762;-54
2023/11/26 06:54:11;;;;;;;;;;;5.90;70.60;;;1.01;100.00;95560.28;5011933;28;19962;-55
2023/11/26 06:56:37;;;;;;;;;;;6.00;70.60;;;0.99;100.00;95565.72;5010977;28;19913;-55
2023/11/26 06:59:02;;;;;;;;;;;6.00;70.70;;;1.00;100.00;95563.91;5011825;28;20011;-53
2023/11/26 07:01:28;;;;;;;;;;;6.00;70.60;;;1.00;100.00;95564.72;5013300;28;19916;-56
2023/11/26 07:03:54;;;;;;;;;;;6.00;70.60;;;1.05;100.00;95575.41;5013176;28;19917;-52
2023/11/26 07:06:20;;;;;;;;;;;6.00;70.60;;;1.08;100.00;95566.31;5012841;28;19952;-52
2023/11/26 07:08:46;;;;;;;;;;;6.00;70.60;;;1.10;100.00;95575.59;5009825;28;20367;-52
2023/11/26 07:11:24;;;;;;;;;;;6.00;70.60;;;1.10;100.00;95573.00;5013005;28;19908;-56
2023/11/26 07:13:51;;;;;;;;;;;6.00;70.60;;;1.11;100.00;95577.22;5012096;28;19909;-53
2023/11/26 07:16:21;;;;;;;;;;;6.00;70.60;;;1.13;100.00;95585.69;5012594;28;19966;-52
2023/11/26 07:18:49;;;;;;;;;;;6.10;70.60;;;1.12;100.00;95578.00;5012517;28;19920;-51
2023/11/26 07:21:15;;;;;;;;;;;6.10;70.50;;;1.11;100.00;95579.03;5030966;28;19925;-51
2023/11/26 07:23:42;;;;;;;;;;;6.10;70.50;;;1.10;100.00;95580.06;5016915;28;19916;-51
2023/11/26 07:26:18;;;;;;;;;;;6.10;70.50;;;1.13;100.00;95582.28;5012525;28;19909;-51
2023/11/26 07:28:50;;;;;;;;;;;6.10;70.50;;;1.10;100.00;95575.59;5009980;28;19913;-53
2023/11/26 07:31:22;;;;;;;;;;;6.10;70.40;;;1.07;100.00;95578.66;5015247;28;20291;-51
2023/11/26 07:33:50;;;;;;;;;;;6.10;70.40;;;1.11;100.00;95586.91;5008673;28;20279;-51
2023/11/26 07:36:22;;;;;;;;;;;6.10;70.40;;;1.13;100.00;95585.69;5010069;28;19912;-52
2023/11/26 07:38:52;;;;;;;;;;;6.20;70.40;;;1.12;100.00;95588.50;5010643;28;19946;-56
2023/11/26 07:41:19;;;;;;;;;;;6.20;70.40;;;1.10;100.00;95587.94;5015601;28;19908;-52
2023/11/26 07:43:45;;;;;;;;;;;6.20;70.30;;;1.17;100.00;95596.59;5015573;28;19912;-53
2023/11/26 07:46:13;;;;;;;;;;;6.20;70.30;;;1.19;100.00;95596.38;5010090;28;19909;-52
2023/11/26 07:48:45;;;;;;;;;;;6.20;70.20;;;1.23;100.00;95593.13;5009882;28;20265;-55
2023/11/26 07:51:11;;;;;;;;;;;6.30;70.20;;;1.31;100.00;95587.66;5009654;28;20497;-57
2023/11/26 07:53:39;;;;;;;;;;;6.30;70.20;;;1.34;100.00;95600.38;5024008;28;20016;-53
2023/11/26 07:56:06;;;;;;;;;;;6.30;70.20;;;1.31;100.00;95598.16;5009438;28;19916;-55
2023/11/26 07:58:33;;;;;;;;;;;6.40;70.30;;;1.39;100.00;95602.38;5009674;28;19920;-54
2023/11/26 08:01:04;;;;;;;;;;;6.40;70.20;;;1.43;100.00;95600.16;5012751;28;19959;-56
2023/11/26 08:03:35;;;;;;;;;;;6.40;70.90;;;1.40;100.00;95598.75;5009069;28;19916;-56
2023/11/26 08:06:02;;;;;;;;;;;6.40;70.10;;;1.47;100.00;95598.72;5009508;28;20000;-53
2023/11/26 08:08:35;;;;;;;;;;;6.50;70.10;;;1.48;100.00;95597.72;5008851;28;20376;-51
2023/11/26 08:11:07;;;;;;;;;;;6.50;70.10;;;1.49;100.00;95600.13;5006840;28;19913;-54
2023/11/26 08:13:37;;;;;;;;;;;6.60;70.00;;;1.45;100.00;95601.56;5004395;28;19916;-51
2023/11/26 08:16:07;;;;;;;;;;;6.60;70.00;;;1.40;100.00;95601.38;5011030;28;19935;-53
2023/11/26 08:18:37;;;;;;;;;;;6.60;69.90;;;1.43;100.00;95603.56;5025029;28;20039;-53
2023/11/26 08:21:06;;;;;;;;;;;6.60;69.80;;;1.49;100.00;95605.38;5036466;28;19913;-52
2023/11/26 08:23:43;;;;;;;;;;;6.60;69.70;;;1.42;100.00;95599.34;5010979;28;20534;-52
2023/11/26 08:26:10;;;;;;;;;;;6.70;69.80;;;1.54;100.00;95600.31;5008102;28;19909;-52
2023/11/26 08:28:37;;;;;;;;;;;6.70;69.70;;;1.55;100.00;95609.00;5015005;28;20295;-52
2023/11/26 08:31:03;;;;;;;;;;;6.70;69.60;;;1.60;100.00;95611.81;5009452;28;20359;-51
2023/11/26 08:33:36;;;;;;;;;;;6.70;69.60;;;1.58;100.00;95603.34;5040812;28;19912;-51
2023/11/26 08:36:04;;;;;;;;;;;6.80;69.60;;;1.52;100.00;95607.59;5042382;28;19917;-51
2023/11/26 08:38:31;;;;;;;;;;;6.80;69.50;;;1.59;100.00;95608.38;5008379;28;19955;-52
2023/11/26 08:41:02;;;;;;;;;;;6.90;69.50;;;1.66;100.00;95616.25;5024428;28;19917;-53
2023/11/26 08:43:28;;;;;;;;;;;6.90;69.40;;;1.73;100.00;95617.03;5009492;28;19911;-54
2023/11/26 08:45:54;;;;;;;;;;;7.00;69.40;;;1.74;100.00;95610.75;5008517;28;19916;-53
2023/11/26 08:48:20;;;;;;;;;;;7.00;69.30;;;1.86;100.00;95610.91;5014392;28;19923;-56
2023/11/26 08:50:46;;;;;;;;;;;7.10;69.30;;;1.95;100.00;95608.84;5012430;28;20450;-55
2023/11/26 08:53:13;;;;;;;;;;;7.20;69.30;;;2.04;100.00;95607.59;5017757;28;19909;-56
2023/11/26 08:55:39;;;;;;;;;;;7.30;69.20;;;2.11;100.00;95604.94;5013060;28;20276;-55
2023/11/26 08:58:05;;;;;;;;;;;7.40;69.20;;;2.05;100.00;95598.69;5015157;28;20007;-54
2023/11/26 09:00:31;;;;;;;;;;;7.50;69.10;;;2.12;100.00;95602.06;5012498;28;20356;-53
2023/11/26 09:02:56;;;;;;;;;;;7.60;68.90;;;2.20;100.00;95598.41;5010868;28;19912;-52
2023/11/26 09:05:24;;;;;;;;;;;7.70;68.80;;;2.27;100.00;95596.53;5010300;28;20326;-55
2023/11/26 09:07:50;;;;;;;;;;;7.80;68.70;;;2.28;100.00;95596.31;5013637;28;20348;-55
2023/11/26 09:10:17;;;;;;;;;;;7.90;68.60;;;2.35;100.00;95601.56;5012626;28;19978;-58
2023/11/26 09:12:43;;;;;;;;;;;7.90;68.40;;;2.28;100.00;95603.41;5020471;28;19909;-54
2023/11/26 09:15:10;;;;;;;;;;;7.90;68.20;;;2.36;100.00;95595.25;5012716;28;19909;-52
2023/11/26 09:17:38;;;;;;;;;;;8.00;68.10;;;2.49;100.00;95592.53;5012922;28;19909;-52
2023/11/26 09:20:11;;;;;;;;;;;8.00;68.10;;;2.53;100.00;95591.09;5038890;28;20013;-54
2023/11/26 09:22:40;;;;;;;;;;;8.10;68.20;;;2.55;100.00;95604.03;5039656;28;19920;-50
2023/11/26 09:25:08;;;;;;;;;;;8.10;68.10;;;2.57;99.89;95601.19;5012594;28;19909;-50
2023/11/26 09:27:37;;;;;;;;;;;8.20;68.00;;;2.64;100.00;95600.13;5011664;28;19915;-49
2023/11/26 09:30:08;;;;;;;;;;;8.20;68.60;;;2.68;100.00;95603.94;5048969;28;19913;-50
2023/11/26 09:32:34;;;;;;;;;;;8.20;67.80;;;2.65;100.00;95606.19;5010080;28;20770;-52
2023/11/26 09:35:01;;;;;;;;;;;8.20;67.80;;;2.66;100.00;95607.78;5016088;28;19998;-51
2023/11/26 09:37:29;;;;;;;;;;;8.20;67.60;;;2.59;99.60;95599.94;5012312;28;19951;-54
2023/11/26 09:39:55;;;;;;;;;;;8.20;67.50;;;2.60;99.25;95596.31;5036569;28;20384;-58
2023/11/26 09:42:22;;;;;;;;;;;8.20;67.40;;;2.59;99.04;95599.94;5010130;28;20152;-55
2023/11/26 09:44:49;;;;;;;;;;;8.30;67.40;;;2.65;99.59;95600.91;5012374;28;19909;-55
2023/11/26 09:47:15;;;;;;;;;;;8.30;67.20;;;2.67;99.54;95597.06;5019439;28;20360;-53
2023/11/26 09:49:42;;;;;;;;;;;8.30;67.20;;;2.71;99.43;95597.44;5011941;28;19927;-53
2023/11/26 09:52:09;;;;;;;;;;;8.30;67.20;;;2.84;100.00;95601.78;5014630;28;19930;-53
2023/11/26 09:54:35;;;;;;;;;;;8.30;67.30;;;2.82;99.00;95594.13;5010893;28;19920;-54
2023/11/26 09:57:02;;;;;;;;;;;8.30;67.30;;;2.89;99.07;95599.31;5009426;28;20291;-54
2023/11/26 09:59:34;;;;;;;;;;;8.40;67.20;;;2.98;98.13;95592.78;5038144;28;19924;-53
2023/11/26 10:02:07;;;;;;;;;;;8.50;67.20;;;3.02;96.34;95593.94;5010679;28;20003;-54
2023/11/26 10:04:52;;;;;;;;;;;8.70;67.00;;;3.18;96.13;95598.63;5009820;28;19966;-54
2023/11/26 10:07:36;;;;;;;;;;;8.90;66.90;;;3.17;94.08;95590.97;5022551;28;20291;-54
2023/11/26 10:10:12;;;;;;;;;;;9.00;66.60;;;3.13;93.27;95585.31;5023201;28;19995;-52
2023/11/26 10:13:03;;;;;;;;;;;9.10;66.30;;;3.23;93.84;95595.38;5039651;28;20271;-52
2023/11/26 10:15:33;;;;;;;;;;;9.10;65.90;;;3.14;93.55;95588.78;5009925;28;20374;-52
2023/11/26 10:18:03;;;;;;;;;;;9.20;65.70;;;3.23;92.29;95587.47;4994275;28;19909;-50
2023/11/26 10:20:34;;;;;;;;;;;9.20;65.70;;;3.26;93.08;95587.03;5010489;28;20000;-55
2023/11/26 10:23:01;;;;;;;;;;;9.20;65.60;;;3.27;92.95;95586.00;5010449;28;19998;-54
2023/11/26 10:25:27;;;;;;;;;;;9.30;65.50;;;3.25;90.39;95582.78;5038516;28;19920;-52
2023/11/26 10:27:59;;;;;;;;;;;9.30;65.40;;;3.24;90.53;95583.81;5010635;28;19917;-54
2023/11/26 10:30:30;;;;;;;;;;;9.30;65.30;;;3.22;90.70;95578.75;5014265;28;19913;-54
2023/11/26 10:33:08;;;;;;;;;;;9.30;65.00;;;3.29;90.90;95575.22;5008836;28;20192;-52
2023/11/26 10:35:55;;;;;;;;;;;9.20;65.00;;;3.21;90.53;95571.88;5009730;28;20387;-53
2023/11/26 10:38:35;;;;;;;;;;;9.10;64.90;;;3.16;91.08;95568.28;5018853;28;19920;-50
2023/11/26 10:41:03;;;;;;;;;;;9.10;64.80;;;3.23;90.47;95567.22;5015138;28;20340;-51
2023/11/26 10:43:31;;;;;;;;;;;9.10;64.90;;;3.27;90.96;95567.56;5017275;28;20329;-54
2023/11/26 10:45:59;;;;;;;;;;;9.10;65.00;;;3.42;92.49;95552.22;5009580;28;19920;-52
2023/11/26 10:48:27;;;;;;;;;;;9.10;65.20;;;3.43;90.95;95563.53;5010427;28;20375;-53
2023/11/26 10:51:18;;;;;;;;;;;9.10;65.30;;;3.55;91.55;95561.00;5008571;28;20387;-54
2023/11/26 10:53:55;;;;;;;;;;;9.20;65.30;;;3.55;91.78;95561.00;5038192;28;19909;-51
2023/11/26 10:56:34;;;;;;;;;;;9.30;65.20;;;3.52;88.56;95551.69;5008817;28;19916;-54
2023/11/26 10:59:03;;;;;;;;;;;9.40;65.10;;;3.59;89.29;95552.41;5009235;28;20289;-50
2023/11/26 11:01:29;;;;;;;;;;;9.40;64.90;;;3.57;87.37;95556.28;5010646;28;20411;-56
2023/11/26 11:03:58;;;;;;;;;;;9.50;64.80;;;3.47;88.41;95552.34;5009859;28;20287;-55
2023/11/26 11:06:25;;;;;;;;;;;9.50;64.70;;;3.51;88.75;95547.47;5006311;28;19916;-50
2023/11/26 11:08:53;;;;;;;;;;;9.50;64.70;;;3.50;88.69;95555.56;5034480;28;19915;-54
2023/11/26 11:11:55;;;;;;;;;;;9.40;64.40;;;3.59;90.31;95562.94;5007064;28;20367;-51
2023/11/26 11:14:23;;;;;;;;;;;9.30;64.30;;;3.45;88.55;95562.31;5006814;28;19924;-52
2023/11/26 11:16:49;;;;;;;;;;;9.30;64.40;;;3.41;89.24;95553.22;5014514;28;19909;-52
2023/11/26 11:19:52;;;;;;;;;;;9.20;64.30;;;3.38;89.29;95553.66;5008758;28;19909;-53
2023/11/26 11:22:18;;;;;;;;;;;9.20;64.30;;;3.47;90.70;95559.44;5008221;28;20299;-50
2023/11/26 11:24:45;;;;;;;;;;;9.20;64.40;;;3.43;90.82;95555.66;5011717;28;19915;-57
2023/11/26 11:27:11;;;;;;;;;;;9.20;64.40;;;3.38;89.96;95556.28;5008373;28;19936;-50
2023/11/26 11:29:37;;;;;;;;;;;9.20;64.30;;;3.41;90.97;95557.69;5014663;28;19916;-50
2023/11/26 11:32:03;;;;;;;;;;;9.20;64.30;;;3.40;91.25;95556.09;5008045;28;20364;-50